createdAt,value
2023-08-13T00:01:15.117Z,99734.16
2023-08-13T00:03:42.913Z,99736.56
2023-08-13T00:06:10.586Z,99739.78
2023-08-13T00:08:38.165Z,99741.84
2023-08-13T00:11:13.238Z,99735.72
2023-08-13T00:13:41.824Z,99723.75
2023-08-13T00:16:11.771Z,99722.94
2023-08-13T00:18:39.570Z,99721.22
2023-08-13T00:21:07.412Z,99715.19
2023-08-13T00:23:35.381Z,99718.09
2023-08-13T00:26:03.747Z,99721.31
2023-08-13T00:28:31.966Z,99719.84
2023-08-13T00:31:00.825Z,99714.88
2023-08-13T00:33:28.595Z,99709.94
2023-08-13T00:35:56.497Z,99703.53
2023-08-13T00:38:24.166Z,99705.38
2023-08-13T00:40:51.908Z,99707.78
2023-08-13T00:43:19.477Z,99695.25
2023-08-13T00:45:47.439Z,99705.72
2023-08-13T00:48:15.200Z,99705.81
2023-08-13T00:50:45.235Z,99704.69
2023-08-13T00:53:13.370Z,99711.81
2023-08-13T00:55:41.227Z,99711.56
2023-08-13T00:58:08.939Z,99699.28
2023-08-13T01:00:36.576Z,99709.84
2023-08-13T01:03:04.367Z,99707.78
2023-08-13T01:05:42.955Z,99703.41
2023-08-13T01:08:23.804Z,99695.41
2023-08-13T01:11:02.936Z,99689.31
2023-08-13T01:13:43.789Z,99700.78
2023-08-13T01:16:12.977Z,99692.66
2023-08-13T01:18:41.839Z,99693.91
2023-08-13T01:21:09.455Z,99687.56
2023-08-13T01:23:37.199Z,99682.69
2023-08-13T01:26:20.305Z,99688.38
2023-08-13T01:29:00.764Z,99694.13
2023-08-13T01:31:36.805Z,99689.75
2023-08-13T01:34:05.531Z,99686.44
2023-08-13T01:36:34.308Z,99694.78
2023-08-13T01:39:02.661Z,99692.84
2023-08-13T01:41:46.235Z,99687.19
2023-08-13T01:44:17.071Z,99690.06
2023-08-13T01:46:45.179Z,99697.16
2023-08-13T01:49:13.155Z,99685.00
2023-08-13T01:51:41.179Z,99682.81
2023-08-13T01:54:09.044Z,99689.09
2023-08-13T01:56:38.716Z,99684.88
2023-08-13T01:59:06.693Z,99689.91
2023-08-13T02:01:34.780Z,99677.09
2023-08-13T02:04:04.253Z,99680.69
2023-08-13T02:06:38.180Z,99676.31
2023-08-13T02:09:08.157Z,99678.06
2023-08-13T02:11:43.838Z,99679.44
2023-08-13T02:14:24.249Z,99669.34
2023-08-13T02:16:53.572Z,99669.56
2023-08-13T02:19:21.576Z,99669.13
2023-08-13T02:21:49.368Z,99676.25
2023-08-13T02:24:19.276Z,99666.63
2023-08-13T02:26:46.969Z,99667.63
2023-08-13T02:29:14.599Z,99670.75
2023-08-13T02:31:42.333Z,99669.13
2023-08-13T02:34:09.996Z,99659.03
2023-08-13T02:36:38.230Z,99668.66
2023-08-13T02:39:05.778Z,99670.25
2023-08-13T02:41:33.353Z,99663.38
2023-08-13T02:44:18.741Z,99660.84
2023-08-13T02:47:36.557Z,99660.16
2023-08-13T02:50:07.946Z,99659.91
2023-08-13T02:53:11.364Z,99665.94
2023-08-13T02:56:45.150Z,99662.78
2023-08-13T03:00:46.929Z,99659.88
2023-08-13T03:02:51.460Z,99660.63
2023-08-13T03:05:19.253Z,99652.56
2023-08-13T03:07:47.143Z,99655.19
2023-08-13T03:10:14.691Z,99661.44
2023-08-13T03:12:42.464Z,99664.56
2023-08-13T03:15:10.250Z,99673.22
2023-08-13T03:17:39.012Z,99669.28
2023-08-13T03:20:07.221Z,99674.91
2023-08-13T03:22:35.041Z,99674.09
2023-08-13T03:25:03.811Z,99672.34
2023-08-13T03:27:31.774Z,99667.84
2023-08-13T03:29:59.309Z,99667.69
2023-08-13T03:32:27.409Z,99670.91
2023-08-13T03:34:55.122Z,99670.72
2023-08-13T03:37:22.877Z,99663.34
2023-08-13T03:39:50.920Z,99667.34
2023-08-13T03:42:18.582Z,99667.69
2023-08-13T03:44:46.296Z,99664.09
2023-08-13T03:47:19.844Z,99673.50
2023-08-13T03:49:48.921Z,99677.41
2023-08-13T03:52:16.852Z,99673.72
2023-08-13T03:54:44.804Z,99670.97
2023-08-13T03:57:12.395Z,99674.28
2023-08-13T03:59:40.247Z,99674.50
2023-08-13T04:02:09.519Z,99675.03
2023-08-13T04:04:37.302Z,99678.19
2023-08-13T04:07:10.260Z,99678.47
2023-08-13T04:09:38.710Z,99668.75
2023-08-13T04:12:07.341Z,99669.69
2023-08-13T04:40:04.091Z,99664.00
2023-08-13T04:42:34.306Z,99658.66
2023-08-13T04:45:02.207Z,99657.59
2023-08-13T04:47:31.463Z,99659.69
2023-08-13T04:49:59.167Z,99650.56
2023-08-13T04:52:26.826Z,99648.88
2023-08-13T04:54:54.778Z,99641.94
2023-08-13T04:57:24.372Z,99647.81
2023-08-13T04:59:52.984Z,99643.63
2023-08-13T05:02:22.349Z,99643.75
2023-08-13T05:04:49.874Z,99639.53
2023-08-13T05:07:18.141Z,99647.25
2023-08-13T05:09:45.979Z,99641.41
2023-08-13T05:12:14.045Z,99644.31
2023-08-13T05:14:42.005Z,99636.81
2023-08-13T05:17:27.985Z,99630.63
2023-08-13T05:19:55.752Z,99639.88
2023-08-13T05:22:23.439Z,99638.81
2023-08-13T05:24:51.088Z,99626.88
2023-08-13T05:27:18.929Z,99631.44
2023-08-13T05:29:46.726Z,99632.47
2023-08-13T05:32:15.099Z,99620.75
2023-08-13T05:34:43.041Z,99620.75
2023-08-13T05:37:10.993Z,99628.56
2023-08-13T05:39:39.758Z,99627.56
2023-08-13T05:42:07.516Z,99615.34
2023-08-13T05:44:35.255Z,99623.31
2023-08-13T05:47:03.465Z,99623.06
2023-08-13T05:49:32.463Z,99620.41
2023-08-13T05:52:00.413Z,99618.00
2023-08-13T05:54:28.082Z,99621.97
2023-08-13T05:56:55.691Z,99625.66
2023-08-13T05:59:23.665Z,99622.47
2023-08-13T06:01:51.481Z,99615.81
2023-08-13T06:04:19.253Z,99614.72
2023-08-13T06:06:46.832Z,99613.34
2023-08-13T06:09:14.457Z,99615.25
2023-08-13T06:11:42.038Z,99624.09
2023-08-13T06:14:09.427Z,99625.75
2023-08-13T06:16:37.058Z,99618.50
2023-08-13T06:19:04.692Z,99625.13
2023-08-13T06:21:32.275Z,99630.38
2023-08-13T06:23:59.973Z,99616.25
2023-08-13T06:26:27.551Z,99618.09
2023-08-13T06:28:55.030Z,99627.16
2023-08-13T06:31:36.493Z,99628.22
2023-08-13T06:34:09.431Z,99625.91
2023-08-13T06:36:36.837Z,99630.44
2023-08-13T06:39:05.052Z,99630.72
2023-08-13T06:41:32.679Z,99633.38
2023-08-13T06:44:04.633Z,99633.06
2023-08-13T06:46:32.333Z,99636.84
2023-08-13T06:49:00.068Z,99640.06
2023-08-13T06:51:27.727Z,99642.19
2023-08-13T06:53:55.345Z,99646.47
2023-08-13T06:56:22.996Z,99637.41
2023-08-13T06:58:50.614Z,99649.09
2023-08-13T07:01:18.117Z,99646.97
2023-08-13T07:03:45.895Z,99662.66
2023-08-13T07:06:13.459Z,99656.22
2023-08-13T07:08:41.146Z,99667.28
2023-08-13T07:11:09.045Z,99660.88
2023-08-13T07:13:45.905Z,99664.34
2023-08-13T07:16:15.158Z,99666.47
2023-08-13T07:18:43.574Z,99655.88
2023-08-13T07:21:15.374Z,99665.81
2023-08-13T07:23:43.678Z,99660.25
2023-08-13T07:26:11.297Z,99668.50
2023-08-13T07:28:41.704Z,99663.78
2023-08-13T07:31:11.114Z,99660.31
2023-08-13T07:34:04.433Z,99663.53
2023-08-13T07:36:32.521Z,99668.06
2023-08-13T07:40:18.237Z,99674.72
2023-08-13T07:42:50.115Z,99667.72
2023-08-13T07:45:18.049Z,99671.47
2023-08-13T07:47:45.845Z,99675.63
2023-08-13T07:50:15.563Z,99687.16
2023-08-13T07:52:43.769Z,99679.59
2023-08-13T07:55:11.789Z,99684.22
2023-08-13T07:57:39.321Z,99687.91
2023-08-13T08:00:09.393Z,99678.75
2023-08-13T08:02:41.159Z,99682.81
2023-08-13T08:05:10.387Z,99686.94
2023-08-13T08:07:38.779Z,99691.38
2023-08-13T08:10:07.766Z,99684.13
2023-08-13T08:12:35.561Z,99690.03
2023-08-13T08:15:04.470Z,99691.75
2023-08-13T08:17:32.873Z,99696.44
2023-08-13T08:20:01.526Z,99692.88
2023-08-13T08:22:33.867Z,99690.50
2023-08-13T08:25:01.911Z,99704.16
2023-08-13T08:27:31.081Z,99700.66
2023-08-13T15:50:19.233Z,99789.13
2023-08-13T15:52:52.239Z,99791.97
2023-08-13T15:55:22.805Z,99787.66
2023-08-13T15:57:53.431Z,99794.78
2023-08-13T16:00:33.134Z,99794.69
2023-08-13T16:03:10.605Z,99793.66
2023-08-13T16:05:57.050Z,99793.47
2023-08-13T16:08:31.829Z,99796.78
2023-08-13T16:11:25.986Z,99803.00
2023-08-13T16:14:03.039Z,99789.22
2023-08-13T16:16:31.396Z,99803.94
2023-08-13T16:19:00.012Z,99813.38
2023-08-13T16:21:27.952Z,99806.69
2023-08-13T16:24:08.752Z,99801.88
2023-08-13T16:26:37.044Z,99809.00
2023-08-13T16:29:06.310Z,99803.97
2023-08-13T16:31:34.186Z,99812.91
2023-08-13T16:34:04.482Z,99807.03
2023-08-13T16:36:34.485Z,99810.38
2023-08-13T16:39:02.326Z,99810.72
2023-08-13T16:41:30.197Z,99810.25
2023-08-13T16:44:00.589Z,99809.25
2023-08-13T16:46:28.998Z,99811.88
2023-08-13T16:48:56.779Z,99797.88
2023-08-13T16:51:25.580Z,99800.28
2023-08-13T16:53:53.652Z,99801.66
2023-08-13T16:56:23.974Z,99800.63
2023-08-13T16:58:52.878Z,99802.81
2023-08-13T17:01:20.932Z,99803.59
2023-08-13T17:03:48.703Z,99800.03
2023-08-13T17:06:17.030Z,99804.97
2023-08-13T17:08:46.292Z,99799.59
2023-08-13T17:11:16.114Z,99804.63
2023-08-13T17:13:44.902Z,99808.44
2023-08-13T17:16:12.799Z,99808.09
2023-08-13T17:18:45.510Z,99802.53
2023-08-13T17:21:13.412Z,99805.50
2023-08-13T17:23:46.305Z,99811.69
2023-08-13T17:26:13.995Z,99806.78
2023-08-13T19:50:03.749Z,99839.75
2023-08-13T19:52:33.443Z,99844.34
2023-08-13T19:55:01.183Z,99856.72
2023-08-13T19:57:39.436Z,99850.94
2023-08-13T20:00:11.264Z,99849.78
